Terminal Aerodrome Forecast
Issued by NWS

Home | Current Version | Previous Version | Text Only | Print | Product List | Glossary On
Versions: 1 2 3 4 5 6 7 8 9 10 11 12 13 14 15
000
FTUS45 KRIW 271100
TAFCPR
TAF
KCPR 271120Z 2712/2812 VRB05KT P6SM FEW015 BKN080
     FM271700 18010KT P6SM SCT050
     FM280200 01006KT P6SM SCT035 BKN050
     FM280800 02007KT P6SM VCSH BKN025=

USA.gov is the U.S. government's official web portal to all federal, state and local government web resources and services.